Time;durP1;ratioP1;P1;durP2;ratioP2;P2;SDS_P1;SDS_P2;PMS_P1;PMS_P2;Temp;Humidity;BMP_temperature;BMP_pressure;BME280_temperature;BME280_humidity;BME280_pressure;Samples;Min_cycle;Max_cycle;Signal;HPM_P1;HPM_P2
2024/01/25 00:01:39;;;;;;;33.83;6.47;;;;;;;;;;4954090;28;20441;-85
2024/01/25 00:04:04;;;;;;;26.90;4.23;;;;;;;;;;4954373;28;20517;-80
2024/01/25 00:06:30;;;;;;;21.23;4.80;;;;;;;;;;4954413;28;20412;-81
2024/01/25 00:08:56;;;;;;;26.07;6.70;;;;;;;;;;4954374;28;20424;-84
2024/01/25 00:11:22;;;;;;;29.07;6.90;;;;;;;;;;4954255;28;20471;-85
2024/01/25 00:13:48;;;;;;;30.50;6.27;;;;;;;;;;4954363;28;20518;-84
2024/01/25 00:16:14;;;;;;;27.73;7.90;;;;;;;;;;4953880;28;20426;-86
2024/01/25 00:18:40;;;;;;;27.17;5.80;;;;;;;;;;4969026;28;20493;-86
2024/01/25 00:21:06;;;;;;;28.17;7.50;;;;;;;;;;4954326;28;20434;-80
2024/01/25 00:23:33;;;;;;;20.43;5.53;;;;;;;;;;4954077;28;20483;-83
2024/01/25 00:25:59;;;;;;;29.07;5.40;;;;;;;;;;4954289;28;20472;-85
2024/01/25 00:28:26;;;;;;;30.23;6.00;;;;;;;;;;4954029;28;20422;-86
2024/01/25 00:30:55;;;;;;;22.50;6.60;;;;;;;;;;4954486;28;20469;-82
2024/01/25 00:33:21;;;;;;;34.43;4.47;;;;;;;;;;4954158;28;20446;-80
2024/01/25 00:35:48;;;;;;;21.50;4.47;;;;;;;;;;4954450;29;20417;-83
2024/01/25 00:38:14;;;;;;;27.63;5.37;;;;;;;;;;4969197;28;20465;-80
2024/01/25 00:40:40;;;;;;;26.87;6.53;;;;;;;;;;4954320;28;20449;-80
2024/01/25 00:43:06;;;;;;;26.83;4.83;;;;;;;;;;4954299;28;20528;-80
2024/01/25 00:45:32;;;;;;;26.20;5.60;;;;;;;;;;4954517;28;20898;-83
2024/01/25 00:47:58;;;;;;;20.57;4.07;;;;;;;;;;4953973;28;20429;-84
2024/01/25 00:50:25;;;;;;;27.80;5.77;;;;;;;;;;4954351;28;20469;-80
2024/01/25 00:52:51;;;;;;;24.57;5.30;;;;;;;;;;4954234;28;20919;-80
2024/01/25 00:55:18;;;;;;;30.37;6.50;;;;;;;;;;4957481;28;20418;-80
2024/01/25 00:57:44;;;;;;;28.03;6.13;;;;;;;;;;4972446;28;20927;-79
2024/01/25 01:00:10;;;;;;;28.70;6.03;;;;;;;;;;4957635;28;20413;-80
2024/01/25 01:02:37;;;;;;;22.07;5.90;;;;;;;;;;4957213;29;20507;-81
2024/01/25 01:05:06;;;;;;;36.47;6.33;;;;;;;;;;4957630;28;20433;-85
2024/01/25 01:07:32;;;;;;;32.80;7.00;;;;;;;;;;4972429;28;20426;-83
2024/01/25 01:10:01;;;;;;;22.00;4.83;;;;;;;;;;4957428;29;20419;-81
2024/01/25 01:12:27;;;;;;;33.90;5.63;;;;;;;;;;4957349;28;20466;-81
2024/01/25 01:14:53;;;;;;;31.67;6.23;;;;;;;;;;4957349;28;20419;-84
2024/01/25 01:17:19;;;;;;;20.70;5.73;;;;;;;;;;4956844;28;20922;-81
2024/01/25 01:19:45;;;;;;;27.33;5.70;;;;;;;;;;4956861;28;20413;-83
2024/01/25 01:22:11;;;;;;;19.63;5.17;;;;;;;;;;4956930;28;20466;-82
2024/01/25 01:24:37;;;;;;;29.50;5.80;;;;;;;;;;4971827;28;20431;-82
2024/01/25 01:27:03;;;;;;;29.90;4.73;;;;;;;;;;4956889;28;20786;-85
2024/01/25 01:29:29;;;;;;;25.87;4.30;;;;;;;;;;4956811;29;20424;-85
2024/01/25 01:31:54;;;;;;;31.43;6.27;;;;;;;;;;4956442;28;20407;-80
2024/01/25 01:34:20;;;;;;;24.10;6.30;;;;;;;;;;4956789;28;20826;-83
2024/01/25 01:36:46;;;;;;;23.40;4.60;;;;;;;;;;4956762;28;20446;-80
2024/01/25 01:39:12;;;;;;;26.30;6.37;;;;;;;;;;4971440;28;20440;-84
2024/01/25 01:41:38;;;;;;;30.77;5.70;;;;;;;;;;4956664;28;20911;-80
2024/01/25 01:44:04;;;;;;;19.07;3.87;;;;;;;;;;4956526;28;20491;-80
2024/01/25 01:46:34;;;;;;;33.00;5.80;;;;;;;;;;4956227;28;20421;-81
2024/01/25 01:49:01;;;;;;;29.20;4.97;;;;;;;;;;4956584;28;20564;-82
2024/01/25 01:51:27;;;;;;;25.67;4.10;;;;;;;;;;4956479;29;20422;-83
2024/01/25 01:53:55;;;;;;;28.97;5.23;;;;;;;;;;4971351;28;20427;-85
2024/01/25 01:56:21;;;;;;;32.27;5.37;;;;;;;;;;4956350;29;20417;-84
2024/01/25 01:58:50;;;;;;;31.70;5.47;;;;;;;;;;4956192;28;20810;-84
2024/01/25 02:01:16;;;;;;;33.57;5.80;;;;;;;;;;4956024;29;20900;-83
2024/01/25 02:03:43;;;;;;;22.30;5.43;;;;;;;;;;4953052;28;20483;-83
2024/01/25 02:06:09;;;;;;;31.63;6.20;;;;;;;;;;4955461;28;20409;-83
2024/01/25 02:08:35;;;;;;;24.20;4.73;;;;;;;;;;4956123;28;20473;-84
2024/01/25 02:11:00;;;;;;;24.40;4.77;;;;;;;;;;4956240;28;20418;-83
2024/01/25 02:13:26;;;;;;;24.60;5.07;;;;;;;;;;4956336;28;20420;-84
2024/01/25 02:15:52;;;;;;;30.57;6.60;;;;;;;;;;4970752;28;20999;-82
2024/01/25 02:18:18;;;;;;;23.93;4.90;;;;;;;;;;4971104;28;20430;-84
2024/01/25 02:20:47;;;;;;;28.60;4.90;;;;;;;;;;4956132;28;20783;-81
2024/01/25 02:23:13;;;;;;;34.23;6.27;;;;;;;;;;4956107;28;20470;-80
2024/01/25 02:25:39;;;;;;;21.87;4.80;;;;;;;;;;4954862;28;20415;-80
2024/01/25 02:28:05;;;;;;;29.00;5.03;;;;;;;;;;4945462;29;20424;-84
2024/01/25 02:30:31;;;;;;;21.93;4.97;;;;;;;;;;4952405;29;20423;-81
2024/01/25 02:32:57;;;;;;;41.37;6.63;;;;;;;;;;4949490;28;20428;-80
2024/01/25 02:35:22;;;;;;;21.63;4.30;;;;;;;;;;4951036;29;20520;-83
2024/01/25 02:37:50;;;;;;;26.20;5.43;;;;;;;;;;4944325;28;20459;-84
2024/01/25 02:40:16;;;;;;;25.33;6.33;;;;;;;;;;4949107;28;20588;-85
2024/01/25 02:42:45;;;;;;;26.23;5.43;;;;;;;;;;4949962;28;20502;-84
2024/01/25 02:45:11;;;;;;;22.73;5.73;;;;;;;;;;4948606;28;20929;-87
2024/01/25 02:47:37;;;;;;;29.67;4.73;;;;;;;;;;4950393;28;20538;-87
2024/01/25 02:50:03;;;;;;;20.87;4.63;;;;;;;;;;4948096;29;20420;-81
2024/01/25 02:52:29;;;;;;;28.53;4.50;;;;;;;;;;4944824;28;20430;-79
2024/01/25 02:54:55;;;;;;;27.87;6.90;;;;;;;;;;4944062;29;20427;-85
2024/01/25 02:57:20;;;;;;;32.00;5.83;;;;;;;;;;4945593;29;20514;-87
2024/01/25 02:59:47;;;;;;;18.47;4.87;;;;;;;;;;4939376;28;20533;-86
2024/01/25 03:02:13;;;;;;;27.13;5.20;;;;;;;;;;4934726;29;20471;-87
2024/01/25 03:04:38;;;;;;;26.63;5.67;;;;;;;;;;4936263;29;20762;-84
2024/01/25 03:07:04;;;;;;;32.93;5.07;;;;;;;;;;4936305;29;20975;-80
2024/01/25 03:09:30;;;;;;;26.97;4.23;;;;;;;;;;4936115;29;20423;-81
2024/01/25 03:11:57;;;;;;;26.03;6.40;;;;;;;;;;4936250;29;20419;-84
2024/01/25 03:14:22;;;;;;;32.43;6.27;;;;;;;;;;4936180;29;20413;-85
2024/01/25 03:16:48;;;;;;;29.83;5.50;;;;;;;;;;4950282;28;20932;-80
2024/01/25 03:19:14;;;;;;;29.33;5.50;;;;;;;;;;4955350;28;20415;-81
2024/01/25 03:21:40;;;;;;;25.70;5.10;;;;;;;;;;4954051;28;20436;-85
2024/01/25 03:24:06;;;;;;;20.87;4.97;;;;;;;;;;4969900;28;20488;-87
2024/01/25 03:26:32;;;;;;;22.13;4.27;;;;;;;;;;4955080;28;20413;-87
2024/01/25 03:28:58;;;;;;;25.97;5.53;;;;;;;;;;4955011;28;20452;-82
2024/01/25 03:31:24;;;;;;;24.30;4.90;;;;;;;;;;4954760;28;20446;-83
2024/01/25 03:33:50;;;;;;;30.10;5.87;;;;;;;;;;4955194;28;20408;-84
2024/01/25 03:36:16;;;;;;;28.17;4.93;;;;;;;;;;4955187;28;20403;-85
2024/01/25 03:38:43;;;;;;;28.27;5.57;;;;;;;;;;4955079;29;20920;-84
2024/01/25 03:41:09;;;;;;;26.07;4.90;;;;;;;;;;4954980;29;21019;-84
2024/01/25 03:43:35;;;;;;;22.03;3.87;;;;;;;;;;4954808;28;20474;-87
2024/01/25 03:46:01;;;;;;;22.93;5.50;;;;;;;;;;4954333;28;20831;-89
2024/01/25 03:48:27;;;;;;;33.47;7.17;;;;;;;;;;4955038;28;20426;-82
2024/01/25 03:50:56;;;;;;;20.17;5.20;;;;;;;;;;4954965;28;20410;-87
2024/01/25 03:53:22;;;;;;;23.70;5.60;;;;;;;;;;4954852;28;20519;-89
2024/01/25 03:55:49;;;;;;;28.67;5.30;;;;;;;;;;4954819;28;20456;-84
2024/01/25 03:58:15;;;;;;;21.20;4.60;;;;;;;;;;4969163;28;20487;-79
2024/01/25 04:00:40;;;;;;;26.00;6.50;;;;;;;;;;4954409;28;20979;-88
2024/01/25 04:03:06;;;;;;;24.20;4.20;;;;;;;;;;4954569;28;20485;-83
2024/01/25 04:05:32;;;;;;;39.87;5.83;;;;;;;;;;4954617;28;20419;-87
2024/01/25 04:07:58;;;;;;;23.30;4.13;;;;;;;;;;4954739;28;20436;-87
2024/01/25 04:10:25;;;;;;;26.10;5.90;;;;;;;;;;4954594;28;20407;-81
2024/01/25 04:12:51;;;;;;;28.27;4.57;;;;;;;;;;4954868;28;20505;-84
2024/01/25 04:15:17;;;;;;;18.03;3.23;;;;;;;;;;4954652;28;20456;-85
2024/01/25 04:17:43;;;;;;;29.37;6.20;;;;;;;;;;4954457;28;21048;-82
2024/01/25 04:20:09;;;;;;;26.60;4.90;;;;;;;;;;4954620;28;20407;-82
2024/01/25 04:22:36;;;;;;;28.23;5.37;;;;;;;;;;4954435;28;20864;-84
2024/01/25 04:25:02;;;;;;;34.70;7.23;;;;;;;;;;4969284;28;20448;-84
2024/01/25 04:27:28;;;;;;;23.50;5.33;;;;;;;;;;4954461;28;20815;-82
2024/01/25 04:29:54;;;;;;;30.40;4.67;;;;;;;;;;4972235;28;20870;-81
2024/01/25 04:32:20;;;;;;;21.03;4.50;;;;;;;;;;4957805;28;20416;-85
2024/01/25 04:34:47;;;;;;;31.03;6.70;;;;;;;;;;4958125;28;20442;-82
2024/01/25 04:37:13;;;;;;;25.83;4.70;;;;;;;;;;4957984;28;20414;-83
2024/01/25 04:39:39;;;;;;;25.13;5.60;;;;;;;;;;4958004;28;20812;-81
2024/01/25 04:42:05;;;;;;;23.40;4.83;;;;;;;;;;4958026;28;20477;-84
2024/01/25 04:44:31;;;;;;;23.77;4.77;;;;;;;;;;4965967;28;20437;-81
2024/01/25 04:46:57;;;;;;;28.00;5.23;;;;;;;;;;4957953;28;20765;-81
2024/01/25 04:49:23;;;;;;;20.83;5.10;;;;;;;;;;4958177;28;20410;-85
2024/01/25 04:51:49;;;;;;;19.03;4.80;;;;;;;;;;4972786;28;20943;-86
2024/01/25 04:54:15;;;;;;;26.40;7.03;;;;;;;;;;4957917;28;20756;-88
2024/01/25 04:56:41;;;;;;;19.73;4.80;;;;;;;;;;4957916;28;20507;-88
2024/01/25 04:59:07;;;;;;;33.80;5.60;;;;;;;;;;4957862;28;20495;-82
2024/01/25 05:01:33;;;;;;;25.40;4.93;;;;;;;;;;4957615;28;20511;-88
2024/01/25 05:03:59;;;;;;;18.93;5.30;;;;;;;;;;4972593;28;21049;-84
2024/01/25 05:06:25;;;;;;;22.40;5.13;;;;;;;;;;4957590;28;20450;-83
2024/01/25 05:08:51;;;;;;;16.80;5.87;;;;;;;;;;4957595;28;20499;-87
2024/01/25 05:11:17;;;;;;;20.07;4.87;;;;;;;;;;4957525;28;20461;-87
2024/01/25 05:13:43;;;;;;;27.50;3.57;;;;;;;;;;4957572;28;20426;-82
2024/01/25 05:16:09;;;;;;;25.07;4.90;;;;;;;;;;4957181;28;20433;-81
2024/01/25 05:18:35;;;;;;;24.40;4.37;;;;;;;;;;4957349;28;20964;-87
2024/01/25 05:21:01;;;;;;;27.47;6.00;;;;;;;;;;4957345;28;20908;-82
2024/01/25 05:23:27;;;;;;;24.67;5.83;;;;;;;;;;4957324;28;20566;-80
2024/01/25 05:25:53;;;;;;;24.20;3.40;;;;;;;;;;4957366;28;20416;-86
2024/01/25 05:28:19;;;;;;;25.90;5.10;;;;;;;;;;4957201;28;20425;-84
2024/01/25 05:30:45;;;;;;;23.43;5.00;;;;;;;;;;4956926;28;20966;-81
2024/01/25 05:33:11;;;;;;;21.50;5.70;;;;;;;;;;4957156;28;20426;-87
2024/01/25 05:35:36;;;;;;;27.93;4.60;;;;;;;;;;4957235;28;20423;-81
2024/01/25 05:38:02;;;;;;;28.40;5.70;;;;;;;;;;4957086;28;20426;-84
2024/01/25 05:40:28;;;;;;;22.57;4.87;;;;;;;;;;4955894;28;20538;-80
2024/01/25 05:42:55;;;;;;;28.43;8.17;;;;;;;;;;4956884;28;20478;-82
2024/01/25 05:45:21;;;;;;;24.87;5.47;;;;;;;;;;4956710;28;20410;-86
2024/01/25 05:47:48;;;;;;;33.50;6.10;;;;;;;;;;4956845;28;20441;-84
2024/01/25 05:50:14;;;;;;;24.13;5.30;;;;;;;;;;4957132;28;20406;-81
2024/01/25 05:52:40;;;;;;;29.37;5.60;;;;;;;;;;4956902;28;20928;-88
2024/01/25 05:55:06;;;;;;;26.10;4.77;;;;;;;;;;4956955;28;20422;-84
2024/01/25 05:57:32;;;;;;;26.33;4.63;;;;;;;;;;4956654;28;20481;-88
2024/01/25 05:59:58;;;;;;;18.37;4.33;;;;;;;;;;4956575;28;20462;-84
2024/01/25 06:02:24;;;;;;;27.57;5.00;;;;;;;;;;4955083;28;20518;-85
2024/01/25 06:04:50;;;;;;;17.77;4.57;;;;;;;;;;4956702;28;20896;-81
2024/01/25 06:07:16;;;;;;;24.87;4.40;;;;;;;;;;4956767;28;20461;-83
2024/01/25 06:09:42;;;;;;;25.70;5.20;;;;;;;;;;4956616;28;20766;-81
2024/01/25 06:12:07;;;;;;;23.30;4.33;;;;;;;;;;4956482;28;20417;-87
2024/01/25 06:14:33;;;;;;;17.13;4.00;;;;;;;;;;4971186;28;20435;-87
2024/01/25 06:16:59;;;;;;;24.97;4.10;;;;;;;;;;4956000;28;20419;-88
2024/01/25 06:19:31;;;;;;;25.27;5.70;;;;;;;;;;4956300;28;20481;-85
2024/01/25 06:21:57;;;;;;;32.77;7.00;;;;;;;;;;4955600;28;20445;-81
2024/01/25 06:24:23;;;;;;;19.70;5.70;;;;;;;;;;4955885;28;20428;-85
2024/01/25 06:26:48;;;;;;;24.60;3.90;;;;;;;;;;4940916;29;20498;-84
2024/01/25 06:29:17;;;;;;;16.93;4.30;;;;;;;;;;4955545;28;20467;-84
2024/01/25 06:31:44;;;;;;;24.20;6.90;;;;;;;;;;4955479;28;20422;-83
2024/01/25 06:34:10;;;;;;;25.27;4.33;;;;;;;;;;4955977;28;20412;-86
2024/01/25 06:36:36;;;;;;;24.13;3.83;;;;;;;;;;4954457;29;20485;-84
2024/01/25 06:39:02;;;;;;;22.57;5.30;;;;;;;;;;4955891;28;20412;-83
2024/01/25 06:41:31;;;;;;;26.10;4.03;;;;;;;;;;4955804;28;20420;-81
2024/01/25 06:43:57;;;;;;;21.33;3.90;;;;;;;;;;4955821;28;20489;-82
2024/01/25 06:46:23;;;;;;;21.40;3.23;;;;;;;;;;4955487;28;20415;-85
2024/01/25 06:48:51;;;;;;;25.77;4.70;;;;;;;;;;4955759;28;20422;-83
2024/01/25 06:51:17;;;;;;;23.33;4.53;;;;;;;;;;4955253;28;20495;-81
2024/01/25 06:53:42;;;;;;;25.53;4.47;;;;;;;;;;4955663;28;20892;-86
2024/01/25 06:56:08;;;;;;;19.40;3.50;;;;;;;;;;4955609;28;20509;-82
2024/01/25 06:58:34;;;;;;;23.27;5.00;;;;;;;;;;4954163;29;20519;-82
2024/01/25 07:01:00;;;;;;;25.93;4.50;;;;;;;;;;4955141;29;20462;-80
2024/01/25 07:03:26;;;;;;;27.27;5.00;;;;;;;;;;4955319;28;20556;-84
2024/01/25 07:05:52;;;;;;;21.07;4.93;;;;;;;;;;4955526;28;20416;-84
2024/01/25 07:08:18;;;;;;;15.13;3.10;;;;;;;;;;4954395;29;20459;-89
2024/01/25 07:10:45;;;;;;;16.97;4.27;;;;;;;;;;4955582;28;20493;-89
2024/01/25 07:13:11;;;;;;;24.83;5.03;;;;;;;;;;4955401;28;20510;-84
2024/01/25 07:15:37;;;;;;;17.90;4.10;;;;;;;;;;4954892;28;20984;-87
2024/01/25 07:18:03;;;;;;;27.73;6.73;;;;;;;;;;4949537;28;20521;-84
2024/01/25 07:20:29;;;;;;;35.77;6.70;;;;;;;;;;4949623;28;20400;-87
2024/01/25 07:22:55;;;;;;;19.93;4.37;;;;;;;;;;4955144;28;21056;-86
2024/01/25 07:25:21;;;;;;;19.40;4.47;;;;;;;;;;4955280;28;20509;-85
2024/01/25 07:27:47;;;;;;;31.10;7.00;;;;;;;;;;4953896;29;20941;-86
2024/01/25 07:30:13;;;;;;;22.90;4.30;;;;;;;;;;4954357;28;20414;-86
2024/01/25 07:32:42;;;;;;;32.43;5.00;;;;;;;;;;4954366;28;20462;-84
2024/01/25 07:35:09;;;;;;;26.33;4.57;;;;;;;;;;4945939;29;20423;-84
2024/01/25 07:37:35;;;;;;;26.53;4.50;;;;;;;;;;4945407;29;20523;-85
2024/01/25 07:40:03;;;;;;;23.27;4.70;;;;;;;;;;4944517;28;20457;-84
2024/01/25 07:42:29;;;;;;;25.13;4.47;;;;;;;;;;4945199;28;20583;-85
2024/01/25 07:44:55;;;;;;;25.30;6.37;;;;;;;;;;4944943;29;20410;-85
2024/01/25 07:47:21;;;;;;;28.30;4.20;;;;;;;;;;4944051;28;20820;-84
2024/01/25 07:49:48;;;;;;;24.30;4.07;;;;;;;;;;4945711;28;20413;-83
2024/01/25 07:52:14;;;;;;;28.10;5.67;;;;;;;;;;4945402;29;20432;-86
2024/01/25 07:54:40;;;;;;;24.40;5.70;;;;;;;;;;4944422;28;20629;-82
2024/01/25 07:57:06;;;;;;;27.33;4.70;;;;;;;;;;4945542;28;20434;-80
2024/01/25 07:59:32;;;;;;;21.27;4.23;;;;;;;;;;4944570;29;20554;-80
2024/01/25 08:01:58;;;;;;;30.63;4.73;;;;;;;;;;4943610;28;20575;-85
2024/01/25 08:04:24;;;;;;;20.27;5.00;;;;;;;;;;4947925;28;20797;-81
2024/01/25 08:06:50;;;;;;;31.93;5.10;;;;;;;;;;4948158;29;20424;-82
2024/01/25 08:09:17;;;;;;;24.03;4.53;;;;;;;;;;4948083;28;20444;-82
2024/01/25 08:11:43;;;;;;;15.70;4.10;;;;;;;;;;4953767;29;20407;-85
2024/01/25 08:14:09;;;;;;;15.87;4.47;;;;;;;;;;4948831;28;20976;-84
2024/01/25 08:16:35;;;;;;;31.60;4.43;;;;;;;;;;4948343;29;20417;-84
2024/01/25 08:19:01;;;;;;;31.50;4.80;;;;;;;;;;4947409;28;20428;-80
2024/01/25 08:21:27;;;;;;;21.43;4.07;;;;;;;;;;4949251;28;21030;-86
2024/01/25 08:23:53;;;;;;;27.20;4.90;;;;;;;;;;4948383;29;20475;-84
2024/01/25 08:26:19;;;;;;;21.33;4.00;;;;;;;;;;4947434;28;20420;-84
2024/01/25 08:28:46;;;;;;;19.87;4.00;;;;;;;;;;4953693;28;20529;-87
2024/01/25 08:31:12;;;;;;;21.33;4.00;;;;;;;;;;4962723;28;21007;-81
2024/01/25 08:33:47;;;;;;;20.47;4.77;;;;;;;;;;4948873;29;20497;-84
2024/01/25 08:36:17;;;;;;;19.97;4.53;;;;;;;;;;4949918;28;20415;-86
2024/01/25 08:38:43;;;;;;;24.23;4.07;;;;;;;;;;4946990;28;20870;-84
2024/01/25 08:41:10;;;;;;;19.47;3.30;;;;;;;;;;4948497;28;20490;-83
2024/01/25 08:43:37;;;;;;;18.90;3.77;;;;;;;;;;4948222;29;20527;-83
2024/01/25 08:46:03;;;;;;;21.47;3.87;;;;;;;;;;4946369;28;20401;-83
2024/01/25 08:48:29;;;;;;;19.93;3.93;;;;;;;;;;4948331;28;20908;-84
2024/01/25 08:50:55;;;;;;;23.17;3.87;;;;;;;;;;4948828;29;20444;-81
2024/01/25 08:53:27;;;;;;;25.27;4.40;;;;;;;;;;4949251;29;20480;-78
2024/01/25 08:55:53;;;;;;;16.20;3.77;;;;;;;;;;4949771;28;20506;-77
2024/01/25 08:58:19;;;;;;;21.77;4.73;;;;;;;;;;4943682;29;20469;-87
2024/01/25 09:00:45;;;;;;;19.47;4.57;;;;;;;;;;4946432;28;20423;-80
2024/01/25 09:03:11;;;;;;;24.13;4.33;;;;;;;;;;4947624;29;20455;-77
2024/01/25 09:05:40;;;;;;;22.90;4.40;;;;;;;;;;4962191;28;20930;-78
2024/01/25 09:08:06;;;;;;;25.43;3.67;;;;;;;;;;4949254;28;20474;-79
2024/01/25 09:10:32;;;;;;;22.67;3.53;;;;;;;;;;4950132;29;20430;-78
2024/01/25 09:12:58;;;;;;;16.27;2.57;;;;;;;;;;4946419;29;20870;-77
2024/01/25 09:15:24;;;;;;;22.47;5.77;;;;;;;;;;4963681;28;20461;-79
2024/01/25 09:17:50;;;;;;;21.13;5.23;;;;;;;;;;4944122;28;20513;-77
2024/01/25 09:20:16;;;;;;;24.67;4.43;;;;;;;;;;4955126;28;20920;-87
2024/01/25 09:22:43;;;;;;;25.93;4.57;;;;;;;;;;4946595;28;20466;-78
2024/01/25 09:25:09;;;;;;;18.67;5.30;;;;;;;;;;4945633;29;20414;-79
2024/01/25 09:27:35;;;;;;;23.80;3.47;;;;;;;;;;4949135;28;20428;-80
2024/01/25 09:30:04;;;;;;;19.77;3.83;;;;;;;;;;4948948;28;20796;-88
2024/01/25 09:32:30;;;;;;;20.07;4.50;;;;;;;;;;4944448;28;20457;-92
2024/01/25 09:34:56;;;;;;;24.40;5.30;;;;;;;;;;4938566;29;20451;-89
2024/01/25 09:37:24;;;;;;;16.23;3.97;;;;;;;;;;4951819;29;20916;-92
2024/01/25 09:39:51;;;;;;;20.33;4.43;;;;;;;;;;4973106;28;20424;-91
2024/01/25 09:42:17;;;;;;;18.37;4.10;;;;;;;;;;4974203;28;20423;-90
2024/01/25 09:44:43;;;;;;;26.10;3.70;;;;;;;;;;4967755;28;20511;-92
2024/01/25 09:47:10;;;;;;;25.83;4.60;;;;;;;;;;4950273;29;20913;-86
2024/01/25 09:49:36;;;;;;;15.13;3.43;;;;;;;;;;4945592;28;20428;-90
2024/01/25 09:52:05;;;;;;;17.43;3.23;;;;;;;;;;4946704;29;20408;-86
2024/01/25 09:54:34;;;;;;;18.77;4.50;;;;;;;;;;4946859;28;20923;-83
2024/01/25 09:57:01;;;;;;;29.63;4.50;;;;;;;;;;4946830;28;20433;-82
2024/01/25 09:59:27;;;;;;;26.40;4.10;;;;;;;;;;4945328;28;20474;-79
2024/01/25 10:01:54;;;;;;;18.90;4.40;;;;;;;;;;4947620;28;20409;-80
2024/01/25 10:04:23;;;;;;;19.00;3.70;;;;;;;;;;4945358;29;21072;-79
2024/01/25 10:06:49;;;;;;;20.10;3.97;;;;;;;;;;4953981;28;20766;-82
2024/01/25 10:09:15;;;;;;;22.80;4.50;;;;;;;;;;4956877;28;20802;-80
2024/01/25 10:11:41;;;;;;;17.93;3.80;;;;;;;;;;4957432;28;20464;-85
2024/01/25 10:14:08;;;;;;;19.20;3.60;;;;;;;;;;4972945;28;20423;-89
2024/01/25 10:16:35;;;;;;;16.60;3.97;;;;;;;;;;4957396;28;20413;-93
2024/01/25 10:19:02;;;;;;;27.50;4.60;;;;;;;;;;4957109;28;20427;-77
2024/01/25 10:21:29;;;;;;;28.20;4.63;;;;;;;;;;4956501;28;20906;-77
2024/01/25 10:23:58;;;;;;;18.40;2.60;;;;;;;;;;4956281;28;20521;-78
2024/01/25 10:26:26;;;;;;;28.07;4.10;;;;;;;;;;4955938;28;20435;-79
2024/01/25 10:28:55;;;;;;;22.07;4.83;;;;;;;;;;4956119;28;20428;-79
2024/01/25 10:31:25;;;;;;;18.03;3.17;;;;;;;;;;4955921;28;20419;-80
2024/01/25 10:33:55;;;;;;;22.10;4.07;;;;;;;;;;4956003;28;20560;-79
2024/01/25 10:36:22;;;;;;;18.60;2.90;;;;;;;;;;4970810;28;20907;-80
2024/01/25 10:38:50;;;;;;;16.93;2.70;;;;;;;;;;4955958;28;20764;-79
2024/01/25 10:41:17;;;;;;;23.50;3.80;;;;;;;;;;4956152;28;20413;-77
2024/01/25 10:43:46;;;;;;;20.97;4.50;;;;;;;;;;4954559;29;20817;-78
2024/01/25 10:46:12;;;;;;;21.73;3.97;;;;;;;;;;4955519;28;20481;-77
2024/01/25 10:48:38;;;;;;;20.53;3.70;;;;;;;;;;4955639;28;20428;-77
2024/01/25 10:51:05;;;;;;;20.07;2.83;;;;;;;;;;4955847;28;20419;-78
2024/01/25 10:53:35;;;;;;;20.13;4.20;;;;;;;;;;4955895;28;20427;-77
2024/01/25 10:56:01;;;;;;;24.83;3.87;;;;;;;;;;4955179;28;20418;-77
2024/01/25 10:58:35;;;;;;;13.17;3.50;;;;;;;;;;4954894;28;20497;-81
2024/01/25 11:01:03;;;;;;;26.60;3.87;;;;;;;;;;4969790;28;20482;-82
2024/01/25 11:03:32;;;;;;;19.13;4.33;;;;;;;;;;4946808;29;20507;-78
2024/01/25 11:06:10;;;;;;;23.10;4.33;;;;;;;;;;4945746;29;20801;-79
2024/01/25 11:08:38;;;;;;;22.80;4.43;;;;;;;;;;4946136;29;20461;-81
2024/01/25 11:11:07;;;;;;;18.57;4.97;;;;;;;;;;4948868;29;20827;-79
2024/01/25 11:13:35;;;;;;;18.60;4.00;;;;;;;;;;4955352;28;20524;-80
2024/01/25 11:16:14;;;;;;;20.00;2.43;;;;;;;;;;4954926;29;20439;-80
2024/01/25 11:18:51;;;;;;;20.30;3.30;;;;;;;;;;4967758;28;20425;-79
2024/01/25 11:21:23;;;;;;;18.57;3.57;;;;;;;;;;4972589;28;20416;-81
2024/01/25 11:23:49;;;;;;;17.50;4.67;;;;;;;;;;4974382;28;20493;-81
2024/01/25 11:26:16;;;;;;;22.70;3.93;;;;;;;;;;4974619;28;20888;-81
2024/01/25 11:28:42;;;;;;;23.37;4.17;;;;;;;;;;4974397;28;20420;-82
2024/01/25 11:31:09;;;;;;;34.43;5.07;;;;;;;;;;4973990;28;20473;-80
2024/01/25 11:33:35;;;;;;;25.17;4.90;;;;;;;;;;4974310;28;20416;-80
2024/01/25 11:36:01;;;;;;;24.77;3.77;;;;;;;;;;4974168;28;20443;-80
2024/01/25 11:38:27;;;;;;;21.80;3.83;;;;;;;;;;4974043;28;20420;-80
2024/01/25 11:40:53;;;;;;;18.73;3.97;;;;;;;;;;4974202;28;20405;-80
2024/01/25 11:43:19;;;;;;;25.07;4.93;;;;;;;;;;4959161;28;20575;-81
2024/01/25 11:45:45;;;;;;;20.80;3.77;;;;;;;;;;4954671;28;20430;-80
2024/01/25 11:48:11;;;;;;;17.77;4.63;;;;;;;;;;4953788;29;20413;-82
2024/01/25 11:50:37;;;;;;;14.80;3.50;;;;;;;;;;4954934;28;20501;-81
2024/01/25 11:53:03;;;;;;;20.00;3.40;;;;;;;;;;4954857;29;20525;-79
2024/01/25 11:55:29;;;;;;;23.83;4.30;;;;;;;;;;4954845;28;20415;-79
2024/01/25 11:57:55;;;;;;;19.97;5.17;;;;;;;;;;4954718;28;20469;-80
2024/01/25 12:00:23;;;;;;;20.83;3.10;;;;;;;;;;4954424;28;20947;-79
2024/01/25 12:02:49;;;;;;;26.40;3.80;;;;;;;;;;4954646;28;20460;-79
2024/01/25 12:05:15;;;;;;;24.13;3.67;;;;;;;;;;4954862;28;20420;-79
2024/01/25 12:07:41;;;;;;;19.60;3.57;;;;;;;;;;4954852;28;20898;-81
2024/01/25 12:10:08;;;;;;;17.70;3.27;;;;;;;;;;4953443;28;20825;-79
2024/01/25 12:12:36;;;;;;;23.93;5.57;;;;;;;;;;4954793;29;20504;-79
2024/01/25 12:15:05;;;;;;;29.70;5.80;;;;;;;;;;4954341;28;20412;-80
2024/01/25 12:17:31;;;;;;;19.73;3.97;;;;;;;;;;4954725;28;20415;-79
2024/01/25 12:20:00;;;;;;;23.93;3.50;;;;;;;;;;4954729;28;20550;-79
2024/01/25 12:22:29;;;;;;;17.37;3.40;;;;;;;;;;4954010;28;20472;-80
2024/01/25 12:24:55;;;;;;;13.70;3.10;;;;;;;;;;4948730;29;20440;-80
2024/01/25 12:27:22;;;;;;;18.50;4.70;;;;;;;;;;4954286;28;20440;-80
2024/01/25 12:29:48;;;;;;;21.70;3.50;;;;;;;;;;4953855;28;20428;-79
2024/01/25 12:32:14;;;;;;;12.47;2.47;;;;;;;;;;4954031;29;20913;-80
2024/01/25 12:34:41;;;;;;;17.60;3.33;;;;;;;;;;4954245;28;20441;-79
2024/01/25 12:37:07;;;;;;;13.67;3.40;;;;;;;;;;4954152;29;20427;-80
2024/01/25 12:39:33;;;;;;;17.53;3.60;;;;;;;;;;4954100;28;20430;-80
2024/01/25 12:41:59;;;;;;;10.03;3.03;;;;;;;;;;4968979;28;20518;-80
2024/01/25 12:44:25;;;;;;;19.87;4.30;;;;;;;;;;4953818;28;20563;-80
2024/01/25 12:46:51;;;;;;;15.80;3.83;;;;;;;;;;4968202;28;20927;-80
2024/01/25 12:49:18;;;;;;;18.13;2.80;;;;;;;;;;4954538;28;20421;-80
2024/01/25 12:51:43;;;;;;;23.30;4.30;;;;;;;;;;4957548;28;20447;-80
2024/01/25 12:54:10;;;;;;;28.13;3.03;;;;;;;;;;4957413;28;20778;-80
2024/01/25 12:56:36;;;;;;;19.17;4.50;;;;;;;;;;4957469;28;20929;-80
2024/01/25 12:59:02;;;;;;;12.20;2.90;;;;;;;;;;4956624;28;20469;-81
2024/01/25 13:01:28;;;;;;;10.40;2.80;;;;;;;;;;4957175;28;20421;-79
2024/01/25 13:03:54;;;;;;;14.67;3.90;;;;;;;;;;4957147;28;20477;-79
2024/01/25 13:06:20;;;;;;;35.20;4.53;;;;;;;;;;4957221;28;20415;-81
2024/01/25 13:08:46;;;;;;;20.17;3.80;;;;;;;;;;4955815;28;20426;-79
2024/01/25 13:11:12;;;;;;;16.83;2.60;;;;;;;;;;4955615;28;20419;-81
2024/01/25 13:13:38;;;;;;;20.40;3.10;;;;;;;;;;4955908;28;20411;-81
2024/01/25 13:16:04;;;;;;;20.07;3.60;;;;;;;;;;4956811;28;20513;-82
2024/01/25 13:18:30;;;;;;;27.10;3.73;;;;;;;;;;4956989;28;20425;-81
2024/01/25 13:20:56;;;;;;;18.77;2.70;;;;;;;;;;4957007;28;20798;-83
2024/01/25 13:23:22;;;;;;;16.83;3.00;;;;;;;;;;4948071;28;20974;-82
2024/01/25 13:25:48;;;;;;;14.90;2.80;;;;;;;;;;4945169;29;21007;-82
2024/01/25 13:28:14;;;;;;;14.20;2.53;;;;;;;;;;4956162;28;20918;-81
2024/01/25 13:30:40;;;;;;;13.90;3.30;;;;;;;;;;4956259;28;21258;-81
2024/01/25 13:33:06;;;;;;;18.60;3.73;;;;;;;;;;4949220;28;20648;-79
2024/01/25 13:35:32;;;;;;;19.33;4.40;;;;;;;;;;4954341;29;20421;-81
2024/01/25 13:38:01;;;;;;;15.60;2.50;;;;;;;;;;4956386;28;20906;-81
2024/01/25 13:40:27;;;;;;;15.30;3.40;;;;;;;;;;4956905;28;20502;-80
2024/01/25 13:42:54;;;;;;;17.30;3.97;;;;;;;;;;4956121;28;20524;-82
2024/01/25 13:45:20;;;;;;;25.53;4.43;;;;;;;;;;4938401;29;20429;-82
2024/01/25 13:47:46;;;;;;;24.03;3.40;;;;;;;;;;4951172;28;20878;-81
2024/01/25 13:50:13;;;;;;;24.60;3.87;;;;;;;;;;4945376;29;20445;-81
2024/01/25 13:52:39;;;;;;;18.30;3.63;;;;;;;;;;4947305;29;20448;-82
2024/01/25 13:55:05;;;;;;;17.57;3.27;;;;;;;;;;4945718;29;20423;-81
2024/01/25 13:57:31;;;;;;;18.17;3.90;;;;;;;;;;4944701;28;20434;-80
2024/01/25 13:59:57;;;;;;;11.63;3.33;;;;;;;;;;4954606;29;20836;-82
2024/01/25 14:02:23;;;;;;;20.23;4.40;;;;;;;;;;4955584;28;20507;-80
2024/01/25 14:04:49;;;;;;;20.57;3.03;;;;;;;;;;4956605;28;20845;-81
2024/01/25 14:07:19;;;;;;;13.77;3.27;;;;;;;;;;4956332;28;20446;-82
2024/01/25 14:09:45;;;;;;;15.63;3.43;;;;;;;;;;4957889;28;20437;-82
2024/01/25 14:12:11;;;;;;;22.63;3.43;;;;;;;;;;4958329;28;20418;-87
2024/01/25 14:14:38;;;;;;;22.73;3.40;;;;;;;;;;4957986;29;20434;-86
2024/01/25 14:17:04;;;;;;;21.10;2.90;;;;;;;;;;4954184;28;20413;-87
2024/01/25 14:19:30;;;;;;;16.80;3.60;;;;;;;;;;4955383;29;20419;-88
2024/01/25 14:21:56;;;;;;;19.80;3.17;;;;;;;;;;4957618;28;20410;-80
2024/01/25 14:24:22;;;;;;;18.20;3.70;;;;;;;;;;4956160;28;20604;-81
2024/01/25 14:26:48;;;;;;;23.57;2.80;;;;;;;;;;4961246;28;20415;-83